Time;durP1;ratioP1;P1;durP2;ratioP2;P2;SDS_P1;SDS_P2;PMS_P1;PMS_P2;Temp;Humidity;BMP_temperature;BMP_pressure;BME280_temperature;BME280_humidity;BME280_pressure;Samples;Min_cycle;Max_cycle;Signal;HPM_P1;HPM_P2
2021/03/26 00:01:39;;;;;;;6.30;2.80;;;;;;;5.82;69.85;101049.47;5065443;28;20254;-68
2021/03/26 00:04:07;;;;;;;6.37;3.20;;;;;;;5.81;69.64;101061.03;5065030;28;20221;-68
2021/03/26 00:06:38;;;;;;;6.77;2.77;;;;;;;5.75;69.83;101063.97;5072850;28;20201;-70
2021/03/26 00:09:06;;;;;;;7.67;3.03;;;;;;;5.70;70.05;101064.19;5071916;28;20297;-71
2021/03/26 00:11:34;;;;;;;10.73;3.23;;;;;;;5.64;69.91;101056.44;5071908;28;20204;-71
2021/03/26 00:14:01;;;;;;;6.87;2.40;;;;;;;5.61;70.41;101061.91;5070263;28;20301;-68
2021/03/26 00:16:28;;;;;;;5.37;2.93;;;;;;;5.42;70.10;101039.63;5071536;28;20629;-68
2021/03/26 00:18:57;;;;;;;9.60;2.50;;;;;;;5.53;70.46;101061.38;5071251;28;20213;-68
2021/03/26 00:21:28;;;;;;;5.57;2.50;;;;;;;5.48;70.78;101066.88;5071681;28;20232;-70
2021/03/26 00:23:55;;;;;;;6.57;3.00;;;;;;;5.46;71.39;101057.22;5059392;28;20195;-71
2021/03/26 00:26:22;;;;;;;7.13;3.00;;;;;;;5.44;71.81;101062.59;5060097;28;20214;-71
2021/03/26 00:28:50;;;;;;;6.83;3.00;;;;;;;5.23;71.55;101035.09;5071636;28;20226;-71
2021/03/26 00:31:18;;;;;;;8.20;2.80;;;;;;;5.29;71.65;101041.94;5062822;28;20614;-71
2021/03/26 00:33:46;;;;;;;9.53;3.57;;;;;;;5.33;71.15;101066.66;5070650;28;20210;-72
2021/03/26 00:36:14;;;;;;;7.20;3.17;;;;;;;5.23;70.86;101059.03;5071648;28;20190;-71
2021/03/26 00:38:42;;;;;;;7.37;3.00;;;;;;;5.15;71.45;101066.44;5071230;28;20296;-71
2021/03/26 00:41:09;;;;;;;5.00;2.50;;;;;;;5.09;71.37;101061.38;5067326;28;20565;-71
2021/03/26 00:43:37;;;;;;;6.27;2.83;;;;;;;5.06;71.40;101063.28;5066650;28;20201;-71
2021/03/26 00:46:04;;;;;;;5.20;2.90;;;;;;;5.01;71.12;101055.50;5071533;28;20671;-71
2021/03/26 00:48:32;;;;;;;6.40;2.80;;;;;;;4.95;71.76;101061.06;5062859;28;20217;-71
2021/03/26 00:51:01;;;;;;;7.67;3.20;;;;;;;4.92;71.40;101061.19;5068738;28;20656;-68
2021/03/26 00:53:32;;;;;;;5.73;2.73;;;;;;;4.88;71.76;101070.19;5072781;28;20222;-68
2021/03/26 00:56:03;;;;;;;6.87;3.03;;;;;;;4.85;71.61;101067.66;5069458;28;20296;-68
2021/03/26 00:58:30;;;;;;;5.93;3.13;;;;;;;4.79;71.70;101067.91;5058529;28;20292;-68
2021/03/26 01:00:58;;;;;;;4.93;2.77;;;;;;;4.68;71.37;101058.56;5071140;28;20263;-68
2021/03/26 01:03:28;;;;;;;10.40;3.07;;;;;;;4.65;71.54;101076.44;5057153;28;20233;-68
2021/03/26 01:05:59;;;;;;;7.47;2.83;;;;;;;4.54;71.99;101060.84;5070486;28;20251;-68
2021/03/26 01:08:27;;;;;;;5.90;2.43;;;;;;;4.56;71.97;101064.31;5070334;28;20684;-68
2021/03/26 01:11:04;;;;;;;10.30;3.33;;;;;;;4.48;72.08;101061.09;5058648;28;20209;-68
2021/03/26 01:13:32;;;;;;;7.83;3.50;;;;;;;4.47;72.23;101050.50;5069217;28;20657;-68
2021/03/26 01:15:59;;;;;;;6.00;2.97;;;;;;;4.44;72.08;101051.50;5070680;28;20212;-68
2021/03/26 01:18:30;;;;;;;7.57;3.20;;;;;;;4.30;72.65;101046.72;5070375;28;20260;-68
2021/03/26 01:21:00;;;;;;;4.53;2.60;;;;;;;4.26;72.41;101045.06;5070823;28;20208;-68
2021/03/26 01:23:29;;;;;;;6.60;3.10;;;;;;;4.17;72.12;101055.16;5069052;28;20223;-68
2021/03/26 01:25:57;;;;;;;9.30;3.13;;;;;;;4.04;72.32;101045.00;5061223;28;20216;-68
2021/03/26 01:28:54;;;;;;;9.53;3.07;;;;;;;4.05;72.18;101056.50;5048093;28;20214;-68
2021/03/26 01:31:30;;;;;;;4.67;2.83;;;;;;;3.92;72.76;101056.03;5085254;28;20194;-68
2021/03/26 01:34:00;;;;;;;7.83;3.60;;;;;;;3.88;72.89;101054.41;5056458;28;20200;-68
2021/03/26 01:36:30;;;;;;;6.10;2.90;;;;;;;3.74;72.54;101056.72;5070067;28;20295;-68
2021/03/26 01:38:59;;;;;;;9.87;3.50;;;;;;;3.76;72.33;101054.88;5071658;28;20291;-68
2021/03/26 01:41:36;;;;;;;9.20;3.53;;;;;;;3.76;72.77;101054.88;5071249;28;20762;-68
2021/03/26 01:44:14;;;;;;;7.80;2.90;;;;;;;3.80;72.54;101056.50;5068653;28;20197;-68
2021/03/26 01:46:42;;;;;;;7.20;3.10;;;;;;;3.82;72.46;101051.13;5071491;28;20228;-68
2021/03/26 01:49:10;;;;;;;10.43;3.20;;;;;;;3.75;72.11;101053.13;5069312;28;20197;-68
2021/03/26 01:51:40;;;;;;;6.03;2.90;;;;;;;3.72;72.28;101051.44;5069988;28;20197;-68
2021/03/26 01:54:11;;;;;;;6.67;2.77;;;;;;;3.70;72.50;101041.81;5069946;28;20829;-68
2021/03/26 01:56:39;;;;;;;8.60;3.10;;;;;;;3.75;72.80;101055.78;5065187;28;20563;-69
2021/03/26 01:59:25;;;;;;;8.50;2.87;;;;;;;3.72;73.23;101038.16;5067395;28;20259;-68
2021/03/26 02:01:58;;;;;;;7.40;3.20;;;;;;;3.80;73.29;101051.19;5066605;28;20232;-68
2021/03/26 02:04:34;;;;;;;10.23;3.07;;;;;;;3.81;72.93;101046.72;5067896;28;20229;-68
2021/03/26 02:07:21;;;;;;;6.73;3.53;;;;;;;3.82;73.53;101049.34;5058146;28;20213;-67
2021/03/26 02:09:49;;;;;;;8.07;3.53;;;;;;;3.82;73.56;101057.31;5070065;28;20202;-67
2021/03/26 02:12:22;;;;;;;6.23;3.37;;;;;;;3.41;73.29;101017.13;5069307;28;20268;-67
2021/03/26 02:14:53;;;;;;;6.47;2.93;;;;;;;3.59;72.65;101055.44;5062790;28;20268;-67
2021/03/26 02:17:23;;;;;;;6.73;3.10;;;;;;;3.53;72.79;101060.94;5071229;28;20648;-68
2021/03/26 02:20:03;;;;;;;7.30;2.90;;;;;;;3.47;72.56;101044.38;5066637;28;20205;-67
2021/03/26 02:22:32;;;;;;;9.27;3.07;;;;;;;3.35;73.15;101049.16;5066727;28;20235;-68
2021/03/26 02:25:02;;;;;;;7.17;3.33;;;;;;;3.31;73.14;101058.13;5070611;28;20534;-67
2021/03/26 02:27:33;;;;;;;9.73;4.00;;;;;;;3.22;73.56;101052.28;5069447;28;20200;-68
2021/03/26 02:30:10;;;;;;;9.10;3.40;;;;;;;3.09;73.75;101041.19;5068037;28;20267;-68
2021/03/26 02:32:44;;;;;;;12.30;3.47;;;;;;;3.27;73.73;101060.94;5068986;28;20583;-67
2021/03/26 02:35:23;;;;;;;8.33;3.10;;;;;;;3.22;73.72;101055.78;5066747;28;20604;-67
2021/03/26 02:37:55;;;;;;;5.83;3.00;;;;;;;3.20;73.80;101060.28;5069313;28;20207;-68
2021/03/26 02:40:30;;;;;;;10.90;3.30;;;;;;;3.13;73.41;101060.53;5068938;28;20604;-67
2021/03/26 02:43:13;;;;;;;11.33;3.90;;;;;;;3.10;72.94;101065.03;5068154;28;20290;-67
2021/03/26 02:45:47;;;;;;;7.80;3.27;;;;;;;3.08;73.25;101064.22;5069075;28;20212;-67
2021/03/26 02:48:21;;;;;;;7.30;3.50;;;;;;;3.07;72.95;101077.53;5069233;28;20614;-67
2021/03/26 02:50:59;;;;;;;8.00;3.00;;;;;;;2.92;73.36;101059.41;5070087;28;20786;-67
2021/03/26 02:54:02;;;;;;;10.13;3.43;;;;;;;3.08;73.49;101081.91;5078802;28;20335;-68
2021/03/26 02:56:36;;;;;;;5.70;2.63;;;;;;;3.09;73.98;101081.00;5063446;28;20206;-67
2021/03/26 02:59:09;;;;;;;8.57;3.33;;;;;;;3.14;73.93;101073.75;5065814;28;20197;-67
2021/03/26 03:01:43;;;;;;;8.07;2.83;;;;;;;3.18;73.83;101072.72;5068575;28;20290;-68
2021/03/26 03:04:15;;;;;;;7.73;3.00;;;;;;;3.20;73.61;101075.34;5068897;28;20208;-68
2021/03/26 03:06:51;;;;;;;9.73;3.40;;;;;;;3.14;73.22;101071.09;5068938;28;20204;-67
2021/03/26 03:09:30;;;;;;;6.70;3.30;;;;;;;2.54;73.34;100973.13;5072895;28;20664;-68
2021/03/26 03:12:05;;;;;;;12.77;3.67;;;;;;;3.04;73.42;101069.63;5073204;28;20197;-67
2021/03/26 03:14:46;;;;;;;12.23;3.00;;;;;;;2.98;73.42;101076.00;5071187;28;20297;-68
2021/03/26 03:17:20;;;;;;;7.00;2.80;;;;;;;2.77;73.39;101034.25;5072634;28;20236;-67
2021/03/26 03:19:54;;;;;;;9.00;3.57;;;;;;;2.92;73.47;101070.03;5062957;28;20207;-68
2021/03/26 03:22:28;;;;;;;6.27;3.33;;;;;;;2.67;73.22;101041.59;5073139;28;20220;-68
2021/03/26 03:25:04;;;;;;;10.33;3.93;;;;;;;2.84;73.31;101075.56;5072416;28;20283;-67
2021/03/26 03:27:39;;;;;;;8.83;3.20;;;;;;;2.78;73.33;101081.94;5072313;28;20297;-68
2021/03/26 03:30:24;;;;;;;8.53;3.53;;;;;;;2.73;73.65;101094.44;5069201;28;20238;-67
2021/03/26 03:33:04;;;;;;;10.50;3.23;;;;;;;2.70;73.65;101094.53;5072400;28;20208;-67
2021/03/26 03:35:53;;;;;;;4.77;2.80;;;;;;;2.56;73.69;101066.72;5064098;28;20588;-67
2021/03/26 03:38:35;;;;;;;10.87;3.17;;;;;;;2.73;74.21;101105.03;5068475;28;20223;-67
2021/03/26 03:41:09;;;;;;;11.00;3.83;;;;;;;2.77;74.30;101101.41;5072145;28;20209;-68
2021/03/26 03:43:50;;;;;;;7.43;3.20;;;;;;;2.76;74.44;101086.44;5069643;28;20235;-67
2021/03/26 03:46:22;;;;;;;9.07;3.67;;;;;;;2.85;74.62;101093.22;5063586;28;20203;-68
2021/03/26 03:49:23;;;;;;;9.57;3.57;;;;;;;2.86;74.64;101086.13;5049237;28;20258;-68
2021/03/26 03:51:58;;;;;;;12.00;3.40;;;;;;;2.86;74.90;101080.84;5073133;28;20200;-68
2021/03/26 03:54:35;;;;;;;11.60;4.30;;;;;;;2.88;75.01;101084.31;5073432;28;20258;-68
2021/03/26 03:57:07;;;;;;;7.13;3.23;;;;;;;2.85;74.88;101079.97;5073375;28;20188;-68
2021/03/26 03:59:42;;;;;;;8.57;3.63;;;;;;;2.79;74.84;101086.31;5069883;28;20212;-68
2021/03/26 04:02:23;;;;;;;12.33;3.20;;;;;;;2.72;75.03;101090.06;5062630;28;20218;-68
2021/03/26 04:04:58;;;;;;;10.40;3.67;;;;;;;2.56;74.74;101083.50;5057349;28;20208;-68
2021/03/26 04:07:32;;;;;;;14.83;3.90;;;;;;;2.49;74.33;101084.59;5071182;28;20618;-74
2021/03/26 04:10:06;;;;;;;6.07;3.20;;;;;;;2.38;74.72;101078.72;5069497;28;20196;-68
2021/03/26 04:12:39;;;;;;;12.47;4.23;;;;;;;2.16;74.60;101081.97;5067588;28;20730;-68
2021/03/26 04:15:20;;;;;;;606.60;254.83;;;;;;;2.22;74.73;101085.38;5068156;28;20200;-67
2021/03/26 04:17:59;;;;;;;65.57;24.23;;;;;;;2.22;75.19;101088.03;5061735;28;20209;-68
2021/03/26 04:20:43;;;;;;;19.67;7.70;;;;;;;2.28;74.79;101095.78;5079878;28;20216;-68
2021/03/26 04:23:19;;;;;;;21.40;10.37;;;;;;;2.32;74.94;101089.47;5069856;28;20246;-67
2021/03/26 04:26:15;;;;;;;15.03;6.53;;;;;;;2.42;74.73;101098.91;5061053;28;20207;-67
2021/03/26 04:29:10;;;;;;;12.63;6.23;;;;;;;2.47;74.61;101095.22;5045266;28;20235;-68
2021/03/26 04:31:55;;;;;;;13.57;7.23;;;;;;;2.60;74.52;101100.16;5061284;28;20209;-67
2021/03/26 04:34:23;;;;;;;24.60;11.87;;;;;;;2.67;74.75;101091.09;5057105;28;20295;-68
2021/03/26 04:37:01;;;;;;;15.70;5.80;;;;;;;2.87;74.51;101095.81;5060709;28;20213;-67
2021/03/26 04:39:52;;;;;;;12.40;6.60;;;;;;;2.97;74.40;101094.63;5071399;28;20208;-68
2021/03/26 04:42:29;;;;;;;22.33;11.67;;;;;;;3.00;74.02;101098.03;5067650;28;20225;-67
2021/03/26 04:45:07;;;;;;;20.83;5.03;;;;;;;2.99;73.69;101106.91;5062838;28;20651;-68
2021/03/26 04:47:56;;;;;;;25.10;4.27;;;;;;;2.87;73.58;101103.78;5066880;28;20213;-68
2021/03/26 04:50:56;;;;;;;9.43;3.43;;;;;;;2.77;73.58;101106.72;5070608;28;20305;-67
2021/03/26 04:53:35;;;;;;;21.63;5.47;;;;;;;2.70;73.49;101107.78;5068824;28;20204;-68
2021/03/26 04:56:07;;;;;;;16.37;4.90;;;;;;;2.63;73.91;101103.59;5059088;28;20573;-68
2021/03/26 04:59:04;;;;;;;18.90;5.57;;;;;;;2.60;73.68;101101.03;5037985;28;20660;-68
2021/03/26 05:02:04;;;;;;;25.43;6.43;;;;;;;2.72;74.05;101111.25;5052469;28;20345;-68
2021/03/26 05:04:37;;;;;;;15.80;5.07;;;;;;;2.60;74.15;101071.88;5069370;28;20593;-68
2021/03/26 05:07:11;;;;;;;19.60;5.47;;;;;;;2.86;73.82;101112.66;5063116;28;20224;-68
2021/03/26 05:09:41;;;;;;;17.13;5.30;;;;;;;2.89;74.15;101115.22;5065797;28;20920;-68
2021/03/26 05:12:25;;;;;;;13.17;4.67;;;;;;;2.83;73.72;101112.75;5069440;28;20787;-67
2021/03/26 05:14:58;;;;;;;19.07;5.03;;;;;;;2.77;74.05;101113.81;5062169;28;20617;-68
2021/03/26 05:17:29;;;;;;;20.23;4.43;;;;;;;2.82;73.75;101116.31;5062072;28;20224;-67
2021/03/26 05:20:26;;;;;;;17.37;4.90;;;;;;;2.84;73.70;101122.44;5064812;28;20386;-67
2021/03/26 05:23:24;;;;;;;19.10;5.67;;;;;;;2.86;74.16;101113.53;5063854;28;20239;-68
2021/03/26 05:26:11;;;;;;;18.93;4.93;;;;;;;2.96;73.77;101114.09;5064518;28;20860;-67
2021/03/26 05:29:04;;;;;;;14.47;6.17;;;;;;;3.04;73.48;101110.28;5052569;28;20243;-68
2021/03/26 05:31:48;;;;;;;14.83;6.57;;;;;;;3.19;73.64;101121.38;5060414;28;20210;-68
2021/03/26 05:35:01;;;;;;;16.40;6.10;;;;;;;3.36;73.43;101124.34;5016942;28;20219;-68
2021/03/26 05:37:43;;;;;;;21.90;4.97;;;;;;;3.45;73.20;101123.19;5006757;28;20260;-68
2021/03/26 05:41:04;;;;;;;21.13;4.47;;;;;;;3.58;72.91;101130.69;5049226;28;20224;-68
2021/03/26 05:44:17;;;;;;;13.93;4.13;;;;;;;3.63;72.68;101127.88;5059393;28;20242;-69
2021/03/26 05:47:04;;;;;;;10.20;4.20;;;;;;;3.61;72.49;101122.63;5070062;28;20492;-67
2021/03/26 05:49:57;;;;;;;9.57;3.83;;;;;;;3.64;73.35;101135.78;5055334;28;20224;-68
2021/03/26 05:52:42;;;;;;;14.50;4.93;;;;;;;3.64;73.21;101135.78;5066824;28;20226;-68
2021/03/26 05:55:32;;;;;;;14.70;4.93;;;;;;;3.54;74.87;101128.19;5061824;28;20204;-67
2021/03/26 05:58:12;;;;;;;17.40;4.90;;;;;;;3.65;73.65;101136.66;5051760;28;20208;-68
2021/03/26 06:01:02;;;;;;;13.40;4.23;;;;;;;3.67;73.96;101127.75;5053453;28;20226;-68
2021/03/26 06:04:32;;;;;;;11.33;4.27;;;;;;;3.72;73.94;101135.56;5051799;28;20264;-67
2021/03/26 06:07:41;;;;;;;11.93;4.63;;;;;;;3.73;73.70;101118.72;5054404;28;20209;-67
2021/03/26 06:11:00;;;;;;;11.23;4.50;;;;;;;3.92;73.65;101132.22;5053493;28;20204;-67
2021/03/26 06:14:17;;;;;;;11.10;3.70;;;;;;;4.08;74.05;101135.22;5059993;28;20207;-68
2021/03/26 06:17:53;;;;;;;9.97;4.20;;;;;;;4.25;75.04;101124.88;5043915;28;20296;-68
2021/03/26 06:20:53;;;;;;;14.23;4.67;;;;;;;4.45;75.60;101124.16;5055615;28;20499;-68
2021/03/26 06:24:15;;;;;;;199.93;95.60;;;;;;;4.74;76.78;101126.59;5054501;28;20293;-68
2021/03/26 06:27:12;;;;;;;10.47;4.77;;;;;;;5.05;79.06;101123.66;5052235;28;20264;-68
2021/03/26 06:29:49;;;;;;;18.87;7.43;;;;;;;5.24;80.08;101126.47;5057669;28;20232;-68
2021/03/26 06:33:03;;;;;;;14.27;5.03;;;;;;;5.42;79.99;101124.84;5052138;28;20205;-68
2021/03/26 06:36:10;;;;;;;17.17;6.10;;;;;;;5.77;79.73;101124.25;5049178;28;20194;-68
2021/03/26 06:38:58;;;;;;;13.87;5.33;;;;;;;6.09;78.72;101135.38;5057243;28;20297;-67
2021/03/26 06:41:42;;;;;;;13.83;5.23;;;;;;;6.34;78.72;101132.53;5055573;28;20721;-67
2021/03/26 06:44:49;;;;;;;14.80;5.60;;;;;;;6.57;77.87;101132.38;5058751;28;20210;-67
2021/03/26 06:47:28;;;;;;;14.97;4.67;;;;;;;6.88;77.81;101134.53;5069138;28;20293;-66
2021/03/26 06:50:03;;;;;;;22.40;5.90;;;;;;;6.92;75.88;101125.44;5055962;28;20258;-69
2021/03/26 06:52:47;;;;;;;12.70;5.47;;;;;;;7.21;75.58;101126.72;5054014;28;20194;-67
2021/03/26 06:55:40;;;;;;;15.40;5.77;;;;;;;7.56;74.65;101127.69;5052049;28;20200;-67
2021/03/26 06:58:43;;;;;;;15.37;7.40;;;;;;;7.87;74.25;101131.50;5054646;28;20739;-67
2021/03/26 07:01:47;;;;;;;14.93;5.73;;;;;;;8.20;73.46;101129.78;5058319;28;20200;-67
2021/03/26 07:04:48;;;;;;;15.07;5.20;;;;;;;8.53;72.02;101131.69;5048670;28;20231;-67
2021/03/26 07:07:49;;;;;;;16.17;5.77;;;;;;;8.75;71.54;101126.06;5071778;28;20261;-67
2021/03/26 07:10:26;;;;;;;12.73;5.20;;;;;;;8.95;71.26;101129.38;5055352;28;20266;-67
2021/03/26 07:13:23;;;;;;;12.93;5.13;;;;;;;8.92;68.83;101124.19;5057798;28;20199;-67
2021/03/26 07:15:59;;;;;;;13.07;5.03;;;;;;;9.29;69.29;101127.50;5060547;28;20287;-67
2021/03/26 07:18:44;;;;;;;15.00;4.87;;;;;;;9.55;68.82;101132.25;5059495;28;20202;-67
2021/03/26 07:21:26;;;;;;;11.37;5.00;;;;;;;9.78;68.10;101141.63;5057417;28;20227;-67
2021/03/26 07:24:36;;;;;;;17.80;5.23;;;;;;;9.93;66.89;101139.91;5066509;28;20235;-67
2021/03/26 07:27:15;;;;;;;9.97;4.23;;;;;;;10.25;66.66;101136.19;5067178;28;20595;-68
2021/03/26 07:30:18;;;;;;;13.57;5.20;;;;;;;10.54;64.41;101138.94;5064810;28;20316;-67
2021/03/26 07:33:03;;;;;;;13.43;4.93;;;;;;;10.70;63.06;101131.63;5042423;28;20300;-68
2021/03/26 07:35:48;;;;;;;16.87;4.83;;;;;;;10.98;63.28;101135.28;5055261;28;20666;-67
2021/03/26 07:38:40;;;;;;;11.77;4.53;;;;;;;11.16;62.32;101135.00;5053656;28;20288;-67
2021/03/26 07:41:37;;;;;;;14.10;5.23;;;;;;;11.30;62.53;101131.41;5055967;28;20206;-68
2021/03/26 07:44:30;;;;;;;10.57;4.53;;;;;;;11.49;62.72;101123.88;5062820;28;20326;-67
2021/03/26 07:47:29;;;;;;;11.57;4.43;;;;;;;11.72;62.47;101116.13;5062288;28;20228;-68
2021/03/26 07:50:18;;;;;;;12.67;5.10;;;;;;;11.89;61.54;101115.88;5052820;28;20194;-67
2021/03/26 07:52:53;;;;;;;10.27;4.13;;;;;;;12.06;59.20;101115.63;5053974;28;20190;-68
2021/03/26 07:55:35;;;;;;;11.33;5.03;;;;;;;12.02;59.86;101115.94;5061497;28;20197;-67
2021/03/26 07:58:36;;;;;;;10.30;4.80;;;;;;;11.90;59.51;101093.38;5061536;28;20199;-67
2021/03/26 08:01:27;;;;;;;16.97;5.00;;;;;;;12.16;59.38;101110.47;5064048;28;20197;-68
2021/03/26 08:04:09;;;;;;;12.77;4.47;;;;;;;12.30;58.43;101113.09;5070462;28;20235;-67
2021/03/26 08:07:01;;;;;;;12.30;4.70;;;;;;;12.39;58.50;101106.19;5068589;28;20444;-68
2021/03/26 08:09:49;;;;;;;8.93;4.47;;;;;;;12.44;57.48;101114.81;5060764;28;20579;-68
2021/03/26 08:12:27;;;;;;;12.73;4.30;;;;;;;12.53;57.50;101115.97;5066082;28;20189;-68
2021/03/26 08:15:22;;;;;;;9.93;4.73;;;;;;;12.57;56.56;101110.31;5069127;28;20205;-67
2021/03/26 08:18:05;;;;;;;10.40;4.57;;;;;;;12.60;56.91;101110.09;5071127;28;20244;-68
2021/03/26 08:20:38;;;;;;;9.97;4.00;;;;;;;12.63;57.49;101115.25;5062645;28;20247;-68
2021/03/26 08:23:23;;;;;;;11.43;4.53;;;;;;;12.60;57.43;101110.09;5060898;28;20241;-67
2021/03/26 08:25:57;;;;;;;10.60;4.20;;;;;;;12.71;56.76;101114.72;5060547;28;20233;-68
2021/03/26 08:28:51;;;;;;;18.57;4.80;;;;;;;12.54;56.90;101112.31;5069839;28;20289;-68
2021/03/26 08:31:41;;;;;;;11.43;4.57;;;;;;;12.65;57.73;101118.69;5068028;28;20202;-67
2021/03/26 08:34:38;;;;;;;10.77;4.47;;;;;;;12.67;57.18;101116.75;5052798;28;20222;-68
2021/03/26 08:37:13;;;;;;;8.70;4.17;;;;;;;12.75;56.54;101119.75;5051771;28;20220;-67
2021/03/26 08:39:42;;;;;;;12.93;4.37;;;;;;;12.80;55.79;101124.81;5069018;28;20203;-67
2021/03/26 08:42:16;;;;;;;15.63;4.03;;;;;;;12.70;56.35;101130.00;5057448;28;20657;-67
2021/03/26 08:44:50;;;;;;;12.80;4.13;;;;;;;12.70;54.99;101126.44;5071358;28;20325;-68
2021/03/26 08:47:26;;;;;;;7.00;3.73;;;;;;;12.71;55.18;101129.03;5064183;28;20198;-67
2021/03/26 08:50:02;;;;;;;11.83;4.10;;;;;;;12.77;55.21;101122.34;5071307;28;20558;-68
2021/03/26 08:52:48;;;;;;;9.97;4.03;;;;;;;12.67;55.23;101132.94;5068474;28;20202;-67
2021/03/26 08:55:41;;;;;;;10.83;3.93;;;;;;;12.74;55.20;101128.81;5064526;28;20191;-67
2021/03/26 08:58:20;;;;;;;15.07;4.40;;;;;;;12.80;55.38;101123.97;5052600;28;20290;-67
2021/03/26 09:01:21;;;;;;;11.27;3.57;;;;;;;12.82;55.82;101130.97;5068209;28;20232;-67
2021/03/26 09:03:59;;;;;;;11.27;4.10;;;;;;;12.82;56.13;101135.50;5053982;28;20227;-67
2021/03/26 09:06:34;;;;;;;14.00;3.97;;;;;;;12.70;55.68;101116.53;5063806;28;20197;-67
2021/03/26 09:09:25;;;;;;;9.27;3.90;;;;;;;12.81;55.55;101113.06;5057992;28;20220;-68
2021/03/26 09:12:07;;;;;;;8.47;3.40;;;;;;;12.77;54.92;101098.09;5060528;28;20203;-67
2021/03/26 09:14:57;;;;;;;10.27;3.70;;;;;;;12.85;54.98;101121.78;5059034;28;20227;-68
2021/03/26 09:17:31;;;;;;;12.60;3.73;;;;;;;12.81;55.15;101123.00;5056226;28;20284;-67
2021/03/26 09:20:03;;;;;;;17.10;4.57;;;;;;;12.77;55.93;101126.88;5058035;28;20204;-68
2021/03/26 09:22:49;;;;;;;9.27;3.47;;;;;;;12.91;54.21;101126.78;5052489;28;20198;-68
2021/03/26 09:25:27;;;;;;;651.60;360.83;;;;;;;12.79;54.14;101115.00;5070435;28;20227;-67
2021/03/26 09:28:00;;;;;;;34.03;18.33;;;;;;;12.80;54.41;101132.03;5062387;28;20216;-68
2021/03/26 09:30:32;;;;;;;19.63;8.57;;;;;;;12.77;56.04;101126.88;5058184;28;20325;-67
2021/03/26 09:33:09;;;;;;;10.87;4.40;;;;;;;12.58;56.34;101098.56;5065416;28;20736;-68
2021/03/26 09:35:44;;;;;;;10.30;4.27;;;;;;;12.85;54.68;101113.72;5058882;28;20203;-68
2021/03/26 09:38:23;;;;;;;14.17;4.23;;;;;;;13.06;54.83;101125.66;5063430;28;20247;-67
2021/03/26 09:41:04;;;;;;;7.90;3.67;;;;;;;13.15;55.03;101133.06;5067292;28;20294;-68
2021/03/26 09:43:35;;;;;;;9.27;3.40;;;;;;;13.10;55.80;101123.59;5058745;28;20222;-67
2021/03/26 09:46:08;;;;;;;7.93;3.30;;;;;;;13.12;55.52;101136.00;5055789;28;20246;-67
2021/03/26 09:48:52;;;;;;;6.40;3.27;;;;;;;13.19;55.22;101137.34;5062547;28;20558;-67
2021/03/26 09:51:26;;;;;;;8.07;3.20;;;;;;;13.25;53.99;101133.31;5069695;28;20205;-68
2021/03/26 09:54:04;;;;;;;8.00;2.90;;;;;;;13.39;54.48;101138.56;5062507;28;20254;-67
2021/03/26 09:56:39;;;;;;;10.77;3.43;;;;;;;13.47;54.58;101143.38;5056432;28;20233;-67
2021/03/26 09:59:15;;;;;;;12.07;3.40;;;;;;;13.56;54.28;101142.75;5061020;28;20287;-67
2021/03/26 10:01:49;;;;;;;6.20;2.73;;;;;;;13.66;53.10;101135.66;5069811;28;20378;-68
2021/03/26 10:04:21;;;;;;;8.77;3.30;;;;;;;13.63;52.80;101138.59;5063243;28;20220;-68
2021/03/26 10:07:14;;;;;;;9.47;3.00;;;;;;;13.60;52.87;101133.44;5054685;28;20299;-68
2021/03/26 10:09:44;;;;;;;8.40;3.10;;;;;;;13.72;53.24;101140.59;5066879;28;20211;-69
2021/03/26 10:12:16;;;;;;;6.20;2.90;;;;;;;13.73;53.24;101139.63;5069436;28;20352;-68
2021/03/26 10:14:59;;;;;;;6.10;2.77;;;;;;;13.86;51.74;101137.75;5057972;28;20196;-68
2021/03/26 10:17:48;;;;;;;7.73;2.93;;;;;;;13.76;51.79;101139.41;5062815;28;20210;-68
2021/03/26 10:20:23;;;;;;;11.50;3.33;;;;;;;13.56;52.60;101131.94;5068051;28;20199;-67
2021/03/26 10:23:00;;;;;;;9.47;3.23;;;;;;;13.47;52.96;101111.00;5061299;28;20202;-68
2021/03/26 10:25:33;;;;;;;10.97;3.77;;;;;;;13.77;52.84;101127.63;5062804;28;20571;-67
2021/03/26 10:28:12;;;;;;;5.37;3.03;;;;;;;13.87;53.21;101136.78;5069268;28;20193;-67
2021/03/26 10:30:42;;;;;;;8.13;3.50;;;;;;;13.84;53.03;101125.34;5056133;28;20319;-67
2021/03/26 10:33:13;;;;;;;9.17;3.13;;;;;;;13.94;53.15;101134.47;5055004;28;20197;-68
2021/03/26 10:35:53;;;;;;;9.57;3.33;;;;;;;13.91;53.16;101132.88;5054607;28;20208;-68
2021/03/26 10:38:39;;;;;;;12.17;3.53;;;;;;;13.74;53.23;101127.84;5056052;28;20379;-67
2021/03/26 10:41:15;;;;;;;6.60;3.20;;;;;;;13.92;53.30;101123.78;5055048;28;20575;-68
2021/03/26 10:43:50;;;;;;;6.47;3.00;;;;;;;14.13;52.96;101117.75;5057114;28;20362;-67
2021/03/26 10:46:23;;;;;;;7.33;3.40;;;;;;;14.26;53.44;101127.47;5057828;28;20254;-67
2021/03/26 10:49:00;;;;;;;7.83;3.30;;;;;;;14.34;52.11;101121.47;5057471;28;20204;-67
2021/03/26 10:51:41;;;;;;;6.90;2.90;;;;;;;14.22;51.91;101112.47;5056437;28;20188;-67
2021/03/26 10:54:16;;;;;;;9.03;3.30;;;;;;;14.49;52.93;101112.22;5055332;28;20279;-67
2021/03/26 10:57:01;;;;;;;7.33;3.77;;;;;;;14.72;51.85;101117.66;5057731;28;20204;-67
2021/03/26 10:59:38;;;;;;;11.20;3.50;;;;;;;14.80;51.31;101112.50;5054562;28;20196;-67
2021/03/26 11:02:34;;;;;;;7.33;3.13;;;;;;;14.84;50.37;101105.84;5053801;28;20199;-67
2021/03/26 11:05:18;;;;;;;5.60;3.13;;;;;;;14.84;51.06;101117.53;5040722;28;20241;-67
2021/03/26 11:07:52;;;;;;;6.37;3.03;;;;;;;15.07;51.17;101107.59;5054122;28;21657;-67
2021/03/26 11:10:23;;;;;;;7.97;2.97;;;;;;;15.32;50.25;101109.16;5055359;28;20861;-67
2021/03/26 11:12:54;;;;;;;8.07;2.70;;;;;;;15.46;49.94;101108.88;5052957;28;20225;-67
2021/03/26 11:15:26;;;;;;;6.97;3.20;;;;;;;15.47;50.40;101115.16;5056255;28;20291;-68
2021/03/26 11:18:03;;;;;;;6.77;3.10;;;;;;;15.52;50.03;101112.91;5053580;28;20283;-68
2021/03/26 11:20:40;;;;;;;8.40;3.57;;;;;;;15.35;50.12;101083.69;5053647;28;20200;-68
2021/03/26 11:23:18;;;;;;;7.90;2.63;;;;;;;15.53;49.30;101103.81;5052814;28;20204;-68
2021/03/26 11:25:48;;;;;;;6.63;3.03;;;;;;;15.37;49.42;101114.19;5057520;28;20186;-68
2021/03/26 11:28:26;;;;;;;7.00;2.77;;;;;;;15.29;50.11;101106.69;5053428;28;20551;-68
2021/03/26 11:31:08;;;;;;;7.83;2.87;;;;;;;15.18;50.76;101106.69;5054616;28;20243;-68
2021/03/26 11:33:45;;;;;;;7.50;3.10;;;;;;;15.07;50.76;101101.31;5057375;28;20265;-68
2021/03/26 11:36:38;;;;;;;5.10;2.87;;;;;;;15.09;49.84;101094.78;5059832;28;20181;-68
2021/03/26 11:39:19;;;;;;;9.07;3.23;;;;;;;15.03;50.02;101095.28;5061862;28;20195;-68
2021/03/26 11:41:51;;;;;;;8.83;3.37;;;;;;;15.00;51.41;101076.63;5066205;28;20193;-69
2021/03/26 11:44:25;;;;;;;7.93;3.50;;;;;;;15.14;49.03;101081.75;5065437;28;20253;-69
2021/03/26 11:46:56;;;;;;;9.23;4.10;;;;;;;15.27;50.31;101087.00;5062331;28;20283;-68
2021/03/26 11:49:28;;;;;;;10.07;3.40;;;;;;;15.35;49.19;101089.09;5057708;28;20196;-68
2021/03/26 11:52:00;;;;;;;5.30;3.20;;;;;;;15.56;48.25;101087.31;5069670;28;20787;-68
2021/03/26 11:54:35;;;;;;;9.30;3.40;;;;;;;15.71;49.45;101094.19;5060078;28;20196;-68
2021/03/26 11:57:13;;;;;;;5.27;2.87;;;;;;;15.87;48.25;101080.22;5066111;28;20197;-68
2021/03/26 11:59:55;;;;;;;5.03;2.60;;;;;;;16.01;49.15;101082.63;5062619;28;20197;-68
2021/03/26 12:02:32;;;;;;;3.53;2.30;;;;;;;15.92;48.09;101082.53;5055436;28;20204;-68
2021/03/26 12:05:09;;;;;;;4.17;2.27;;;;;;;15.94;48.69;101086.84;5057697;28;20228;-68
2021/03/26 12:07:59;;;;;;;4.03;2.40;;;;;;;16.15;47.69;101084.16;5058342;28;20197;-68
2021/03/26 12:10:34;;;;;;;14.13;2.73;;;;;;;16.37;48.82;101078.59;5057597;28;20212;-69
2021/03/26 12:13:11;;;;;;;3.53;1.93;;;;;;;16.54;47.44;101087.13;5059973;28;20196;-68
2021/03/26 12:15:43;;;;;;;6.03;2.53;;;;;;;16.37;47.27;101032.50;5072933;28;20198;-68
2021/03/26 12:18:17;;;;;;;5.80;2.90;;;;;;;16.20;44.79;101027.69;5057988;28;20632;-68
2021/03/26 12:20:46;;;;;;;10.20;2.67;;;;;;;16.17;46.38;101078.59;5055948;28;20664;-68
2021/03/26 12:23:37;;;;;;;4.20;1.87;;;;;;;16.15;45.49;101062.47;5060475;28;20250;-68
2021/03/26 12:26:18;;;;;;;7.27;3.30;;;;;;;16.08;47.51;101064.00;5056807;28;20210;-68
2021/03/26 12:29:05;;;;;;;4.83;2.30;;;;;;;16.21;48.95;101063.78;5073642;28;20229;-68